Time;durP1;ratioP1;P1;durP2;ratioP2;P2;SDS_P1;SDS_P2;PMS_P1;PMS_P2;Temp;Humidity;BMP_temperature;BMP_pressure;BME280_temperature;BME280_humidity;BME280_pressure;Samples;Min_cycle;Max_cycle;Signal;HPM_P1;HPM_P2
2022/03/18 00:02:14;;;;;;;16.20;5.83;;;9.30;93.30;;;;;;5109916;28;20792;-62
2022/03/18 00:04:40;;;;;;;15.95;5.70;;;9.30;93.20;;;;;;5109805;28;20416;-63
2022/03/18 00:07:07;;;;;;;16.33;5.65;;;9.30;93.40;;;;;;5110301;28;20412;-63
2022/03/18 00:09:32;;;;;;;17.90;5.60;;;9.30;93.30;;;;;;5108064;28;20886;-64
2022/03/18 00:11:58;;;;;;;19.17;5.90;;;9.30;93.20;;;;;;5108230;28;20406;-62
2022/03/18 00:14:23;;;;;;;18.20;5.97;;;9.30;93.30;;;;;;5107969;28;20408;-63
2022/03/18 00:16:49;;;;;;;18.30;5.90;;;9.20;93.20;;;;;;5109912;28;20442;-62
2022/03/18 00:19:15;;;;;;;18.20;5.68;;;9.20;93.30;;;;;;5108008;28;20887;-62
2022/03/18 00:21:41;;;;;;;18.17;5.80;;;9.20;93.40;;;;;;5109552;28;20411;-63
2022/03/18 00:24:07;;;;;;;15.55;5.60;;;9.10;93.20;;;;;;5108187;28;20460;-62
2022/03/18 00:26:32;;;;;;;16.90;5.40;;;9.20;93.30;;;;;;5110708;28;20798;-64
2022/03/18 00:28:59;;;;;;;16.33;5.70;;;9.20;93.30;;;;;;5107918;28;20484;-63
2022/03/18 00:31:26;;;;;;;20.58;6.03;;;9.20;93.10;;;;;;5108632;28;20419;-64
2022/03/18 00:33:52;;;;;;;18.30;5.97;;;9.20;93.30;;;;;;5106966;28;20416;-62
2022/03/18 00:36:17;;;;;;;17.25;5.70;;;9.20;93.30;;;;;;5108665;28;20397;-63
2022/03/18 00:38:43;;;;;;;19.13;6.20;;;9.20;93.20;;;;;;5108027;28;20415;-65
2022/03/18 00:41:09;;;;;;;17.48;5.57;;;9.20;93.20;;;;;;5105506;28;20748;-64
2022/03/18 00:43:35;;;;;;;16.27;6.10;;;9.20;93.20;;;;;;5107299;28;20436;-64
2022/03/18 00:46:01;;;;;;;16.50;5.90;;;9.20;93.30;;;;;;5106517;28;20430;-63
2022/03/18 00:53:55;;;;;;;17.98;5.85;;;9.20;92.90;;;;;;5106347;28;20449;-62
2022/03/18 00:56:21;;;;;;;16.17;5.77;;;9.10;92.70;;;;;;5106381;28;20412;-64
2022/03/18 00:58:46;;;;;;;16.75;6.00;;;9.10;92.80;;;;;;5108847;27;20935;-63
2022/03/18 01:01:12;;;;;;;17.20;5.70;;;9.10;92.70;;;;;;5110785;28;20418;-63
2022/03/18 01:03:38;;;;;;;14.90;6.00;;;9.10;92.60;;;;;;5107004;28;20418;-63
2022/03/18 01:06:04;;;;;;;15.30;5.82;;;9.10;92.80;;;;;;5108342;28;20428;-64
2022/03/18 01:08:30;;;;;;;18.20;6.68;;;9.10;92.80;;;;;;5107669;28;20765;-63
2022/03/18 01:10:56;;;;;;;18.00;6.68;;;9.10;92.80;;;;;;5110021;27;20427;-63
2022/03/18 01:13:22;;;;;;;18.13;6.53;;;9.10;92.90;;;;;;5108905;28;20403;-64
2022/03/18 01:15:48;;;;;;;19.75;6.47;;;9.10;93.00;;;;;;5107755;28;21002;-64
2022/03/18 01:18:14;;;;;;;16.67;6.10;;;9.10;93.00;;;;;;5106896;28;20754;-64
2022/03/18 01:20:40;;;;;;;12.88;6.10;;;9.10;93.20;;;;;;5108970;28;20404;-64
2022/03/18 01:23:06;;;;;;;20.10;6.65;;;9.10;93.00;;;;;;5108896;28;20456;-65
2022/03/18 01:25:35;;;;;;;22.83;6.20;;;9.10;93.00;;;;;;5108178;28;20404;-64
2022/03/18 01:28:01;;;;;;;16.92;6.53;;;9.00;92.80;;;;;;5103846;28;20511;-63
2022/03/18 01:30:29;;;;;;;18.67;6.60;;;9.00;92.80;;;;;;5106706;28;20450;-64
2022/03/18 01:32:55;;;;;;;15.63;6.40;;;9.00;92.80;;;;;;5108861;28;20426;-63
2022/03/18 01:35:21;;;;;;;19.17;6.65;;;9.00;92.80;;;;;;5108504;27;20443;-63
2022/03/18 01:37:47;;;;;;;16.27;6.53;;;8.90;92.70;;;;;;5106218;28;20467;-63
2022/03/18 01:40:12;;;;;;;18.13;6.20;;;9.00;92.70;;;;;;5104973;28;20483;-65
2022/03/18 01:42:38;;;;;;;15.27;6.23;;;9.00;92.80;;;;;;5105842;28;20873;-64
2022/03/18 01:45:04;;;;;;;21.67;6.47;;;8.90;92.80;;;;;;5106377;28;20419;-64
2022/03/18 01:47:30;;;;;;;19.02;6.18;;;9.00;92.90;;;;;;5107430;28;20408;-65
2022/03/18 01:49:58;;;;;;;19.87;6.47;;;9.00;93.00;;;;;;5108924;28;20414;-64
2022/03/18 01:52:24;;;;;;;17.45;6.57;;;8.90;92.80;;;;;;5102901;28;20491;-64
2022/03/18 01:54:54;;;;;;;17.33;6.20;;;8.90;92.90;;;;;;5107223;28;20420;-62
2022/03/18 01:57:23;;;;;;;15.77;6.20;;;8.90;93.10;;;;;;5108204;28;20426;-63
2022/03/18 01:59:50;;;;;;;17.73;6.00;;;8.90;93.10;;;;;;5108649;27;20396;-63
2022/03/18 02:02:17;;;;;;;18.65;6.15;;;8.90;93.00;;;;;;5106049;28;20412;-64
2022/03/18 02:04:46;;;;;;;17.27;6.25;;;8.90;93.00;;;;;;5104699;28;20412;-64
2022/03/18 02:07:13;;;;;;;20.77;5.93;;;8.90;92.90;;;;;;5105824;28;20453;-64
2022/03/18 02:09:40;;;;;;;18.17;5.97;;;8.90;92.90;;;;;;5106351;28;20404;-64
2022/03/18 02:12:07;;;;;;;17.00;6.05;;;8.80;93.00;;;;;;5106090;28;20412;-64
2022/03/18 02:14:34;;;;;;;18.40;6.30;;;8.80;93.10;;;;;;5106668;28;20420;-63
2022/03/18 02:17:02;;;;;;;18.07;6.40;;;8.80;93.40;;;;;;5105734;28;20434;-64
2022/03/18 02:19:28;;;;;;;19.10;6.10;;;8.80;93.40;;;;;;5108954;28;20469;-62
2022/03/18 02:21:56;;;;;;;15.55;5.75;;;8.80;93.50;;;;;;5105958;28;20501;-64
2022/03/18 02:24:21;;;;;;;19.65;6.53;;;8.80;93.40;;;;;;5103503;28;20412;-63
2022/03/18 02:26:53;;;;;;;19.10;6.30;;;8.70;93.50;;;;;;5106700;28;22354;-63
2022/03/18 02:29:21;;;;;;;17.07;6.10;;;8.70;93.60;;;;;;5106384;28;20412;-64
2022/03/18 02:31:47;;;;;;;18.52;6.20;;;8.70;93.70;;;;;;5106938;28;20420;-63
2022/03/18 02:34:13;;;;;;;17.55;5.82;;;8.70;93.60;;;;;;5104387;28;20891;-64
2022/03/18 02:36:40;;;;;;;17.63;5.93;;;8.70;93.70;;;;;;5105731;28;20408;-63
2022/03/18 02:39:05;;;;;;;18.13;6.07;;;8.60;93.30;;;;;;5107577;28;20412;-64
2022/03/18 02:41:32;;;;;;;16.30;6.17;;;8.60;93.40;;;;;;5106190;28;20709;-63
2022/03/18 02:43:58;;;;;;;15.23;6.38;;;8.60;93.40;;;;;;5106715;28;20899;-63
2022/03/18 02:46:24;;;;;;;13.80;5.47;;;8.50;93.30;;;;;;5104140;28;20486;-63
2022/03/18 02:48:50;;;;;;;14.18;5.60;;;8.50;93.10;;;;;;5106250;28;20424;-63
2022/03/18 02:51:16;;;;;;;14.97;5.60;;;8.50;93.10;;;;;;5107062;28;20440;-64
2022/03/18 02:53:41;;;;;;;14.48;6.07;;;8.50;93.20;;;;;;5107162;28;20392;-65
2022/03/18 02:56:07;;;;;;;13.63;5.78;;;8.50;93.00;;;;;;5105600;28;20412;-65
2022/03/18 02:58:35;;;;;;;14.90;5.00;;;8.40;92.70;;;;;;5105909;28;20533;-63
2022/03/18 03:01:02;;;;;;;14.32;5.50;;;8.40;92.80;;;;;;5107598;28;20400;-62
2022/03/18 03:03:28;;;;;;;16.17;5.55;;;8.40;93.40;;;;;;5106249;28;20404;-63
2022/03/18 03:08:39;;;;;;;13.80;5.75;;;8.30;93.20;;;;;;5105792;28;20416;-64
2022/03/18 03:11:05;;;;;;;13.73;5.60;;;8.30;93.20;;;;;;5105921;28;20835;-63
2022/03/18 03:13:32;;;;;;;13.40;5.72;;;8.30;93.10;;;;;;5106613;28;20415;-63
2022/03/18 03:15:59;;;;;;;15.63;5.50;;;8.30;93.20;;;;;;5103290;28;20419;-63
2022/03/18 03:18:26;;;;;;;17.05;5.60;;;8.20;92.90;;;;;;5106034;28;20447;-64
2022/03/18 03:20:52;;;;;;;16.57;5.70;;;8.20;93.00;;;;;;5105172;28;20508;-63
2022/03/18 03:23:18;;;;;;;14.68;5.35;;;8.20;93.10;;;;;;5106399;28;20462;-65
2022/03/18 03:25:44;;;;;;;11.60;5.90;;;8.20;92.80;;;;;;5105277;28;20408;-63
2022/03/18 03:28:09;;;;;;;12.60;5.33;;;8.20;92.90;;;;;;5108025;28;20420;-65
2022/03/18 03:30:35;;;;;;;13.27;5.32;;;8.20;93.10;;;;;;5102717;28;20408;-65
2022/03/18 03:33:01;;;;;;;13.13;5.50;;;8.20;93.50;;;;;;5107714;28;20419;-64
2022/03/18 03:35:26;;;;;;;18.13;5.63;;;8.20;93.40;;;;;;5106805;28;20805;-63
2022/03/18 03:37:52;;;;;;;11.27;5.03;;;8.10;92.90;;;;;;5103127;28;20427;-62
2022/03/18 03:40:19;;;;;;;17.23;5.50;;;8.10;92.90;;;;;;5104076;28;20413;-63
2022/03/18 03:42:45;;;;;;;12.77;5.30;;;8.00;93.40;;;;;;5101703;28;20419;-63
2022/03/18 03:45:12;;;;;;;14.68;6.07;;;8.00;93.40;;;;;;5104424;28;20424;-64
2022/03/18 03:47:39;;;;;;;14.02;5.63;;;8.00;93.50;;;;;;5106684;28;20855;-64
2022/03/18 03:50:07;;;;;;;13.75;6.10;;;8.00;93.30;;;;;;5105178;28;20449;-63
2022/03/18 03:52:34;;;;;;;14.27;5.70;;;8.00;93.20;;;;;;5105159;28;20423;-63
2022/03/18 03:54:59;;;;;;;13.52;5.68;;;7.90;93.30;;;;;;5105191;28;20408;-63
2022/03/18 03:57:25;;;;;;;14.95;5.50;;;7.90;93.20;;;;;;5107833;28;20488;-62
2022/03/18 03:59:51;;;;;;;13.18;6.03;;;7.90;93.40;;;;;;5106047;28;20856;-62
2022/03/18 04:02:16;;;;;;;;;;;7.90;93.50;;;;;;5107501;28;20092;-62
2022/03/18 04:04:42;;;;;;;15.40;5.07;;;7.50;93.40;;;;;;5106840;28;20196;-63
2022/03/18 04:07:08;;;;;;;11.38;5.75;;;7.20;94.00;;;;;;5108808;28;20213;-63
2022/03/18 04:09:34;;;;;;;14.52;5.97;;;7.00;94.20;;;;;;5110150;28;20181;-63
2022/03/18 04:11:59;;;;;;;17.85;6.10;;;6.80;94.40;;;;;;5112158;28;20185;-64
2022/03/18 04:14:28;;;;;;;15.70;5.60;;;6.70;94.50;;;;;;5108805;28;20182;-65
2022/03/18 04:16:53;;;;;;;14.52;5.70;;;6.60;94.70;;;;;;5111460;28;20178;-64
2022/03/18 04:19:19;;;;;;;14.10;5.30;;;6.50;94.90;;;;;;5108283;28;20181;-64
2022/03/18 04:21:45;;;;;;;13.35;5.80;;;6.50;95.00;;;;;;5109559;28;20173;-65
2022/03/18 04:24:10;;;;;;;14.20;5.82;;;6.30;95.10;;;;;;5107809;28;20194;-64
2022/03/18 04:26:36;;;;;;;16.00;5.53;;;6.30;95.20;;;;;;5111628;28;20177;-67
2022/03/18 04:29:02;;;;;;;14.00;5.05;;;6.30;95.30;;;;;;5111656;28;20228;-67
2022/03/18 04:31:27;;;;;;;10.98;5.78;;;6.20;95.30;;;;;;5111338;28;20176;-68
2022/03/18 04:33:53;;;;;;;13.75;5.65;;;6.10;95.30;;;;;;5106581;28;20259;-64
2022/03/18 04:36:19;;;;;;;14.23;5.30;;;6.10;95.40;;;;;;5110418;28;20204;-63
2022/03/18 04:38:44;;;;;;;14.65;5.32;;;6.00;95.50;;;;;;5109642;28;20188;-66
2022/03/18 04:41:10;;;;;;;16.85;5.78;;;5.90;95.50;;;;;;5111067;28;20177;-63
2022/03/18 04:43:36;;;;;;;13.75;5.40;;;5.90;95.60;;;;;;5109117;28;20188;-63
2022/03/18 04:46:01;;;;;;;14.60;5.25;;;5.80;95.70;;;;;;5110675;28;20225;-63
2022/03/18 04:48:27;;;;;;;19.48;6.13;;;5.80;95.90;;;;;;5105226;28;20213;-64
2022/03/18 04:50:52;;;;;;;11.75;5.70;;;5.80;96.00;;;;;;5108833;28;20177;-64
2022/03/18 04:53:18;;;;;;;11.05;5.38;;;5.70;96.10;;;;;;5107569;28;20224;-63
2022/03/18 04:55:44;;;;;;;11.90;5.63;;;5.80;96.20;;;;;;5109939;28;20213;-64
2022/03/18 04:58:10;;;;;;;14.02;5.97;;;5.70;96.30;;;;;;5108189;27;20181;-64
2022/03/18 05:00:36;;;;;;;14.48;5.50;;;5.70;96.40;;;;;;5111426;28;20185;-65
2022/03/18 05:03:02;;;;;;;13.18;5.53;;;5.70;96.40;;;;;;5109880;28;20227;-63
2022/03/18 05:05:28;;;;;;;19.60;6.10;;;5.70;96.50;;;;;;5109956;28;20673;-65
2022/03/18 05:07:55;;;;;;;12.25;5.57;;;5.60;96.50;;;;;;5109482;28;20247;-65
2022/03/18 05:10:22;;;;;;;15.27;6.18;;;5.60;96.60;;;;;;5108508;28;20630;-64
2022/03/18 05:12:48;;;;;;;14.68;6.35;;;5.60;96.70;;;;;;5109243;27;20211;-64
2022/03/18 05:15:14;;;;;;;17.95;6.13;;;5.60;96.80;;;;;;5104858;28;20201;-65
2022/03/18 05:17:40;;;;;;;17.42;5.95;;;5.50;96.90;;;;;;5110129;28;20189;-65
2022/03/18 05:20:09;;;;;;;23.52;6.28;;;5.60;97.00;;;;;;5108700;28;20521;-63
2022/03/18 05:22:35;;;;;;;11.35;5.20;;;5.50;97.10;;;;;;5109916;28;20211;-64
2022/03/18 05:25:01;;;;;;;15.25;6.60;;;5.50;97.20;;;;;;5107995;28;20177;-64
2022/03/18 05:27:26;;;;;;;14.98;6.40;;;5.50;97.30;;;;;;5109744;28;20209;-65
2022/03/18 05:29:53;;;;;;;17.58;6.20;;;5.50;97.40;;;;;;5109324;28;20278;-64
2022/03/18 05:32:19;;;;;;;12.75;5.57;;;5.50;97.40;;;;;;5092620;28;20201;-64
2022/03/18 05:34:45;;;;;;;18.02;6.82;;;5.50;97.50;;;;;;5107340;28;20189;-63
2022/03/18 05:37:11;;;;;;;12.88;5.95;;;5.50;97.60;;;;;;5107908;28;20246;-63
2022/03/18 05:39:37;;;;;;;14.02;5.80;;;5.50;97.70;;;;;;5105351;28;21132;-62
2022/03/18 05:42:04;;;;;;;20.70;6.80;;;5.50;97.70;;;;;;5108994;28;20269;-63
2022/03/18 05:44:30;;;;;;;15.23;6.32;;;5.50;97.80;;;;;;5107726;28;20244;-69
2022/03/18 05:46:56;;;;;;;15.00;5.90;;;5.50;97.90;;;;;;5109819;28;20791;-62
2022/03/18 05:49:21;;;;;;;16.02;5.97;;;5.50;97.90;;;;;;5107507;28;20183;-62
2022/03/18 05:51:47;;;;;;;15.60;5.95;;;5.50;98.00;;;;;;5109019;28;20177;-65
2022/03/18 05:54:13;;;;;;;13.47;6.23;;;5.50;98.00;;;;;;5104537;28;20429;-65
2022/03/18 05:56:54;;;;;;;17.15;6.40;;;5.60;98.60;;;;;;5109832;28;20177;-65
2022/03/18 05:59:27;;;;;;;16.08;6.32;;;5.60;98.40;;;;;;5103317;28;20188;-63
2022/03/18 06:01:54;;;;;;;18.13;6.32;;;5.60;98.40;;;;;;5104024;28;20338;-66
2022/03/18 06:04:20;;;;;;;13.20;5.78;;;5.60;98.50;;;;;;5105807;28;20185;-65
2022/03/18 06:06:47;;;;;;;20.27;6.38;;;5.50;98.80;;;;;;5107775;28;20644;-65
2022/03/18 06:11:59;;;;;;;19.08;6.30;;;5.50;98.60;;;;;;5106168;28;20246;-65
2022/03/18 06:14:27;;;;;;;19.33;7.32;;;5.50;98.60;;;;;;5107787;28;20272;-66
2022/03/18 06:16:58;;;;;;;17.75;7.22;;;5.50;98.60;;;;;;5108683;28;22234;-65
2022/03/18 06:19:25;;;;;;;15.52;6.78;;;5.50;98.60;;;;;;5104015;28;20185;-64
2022/03/18 06:21:51;;;;;;;17.10;7.18;;;5.50;98.60;;;;;;5105085;28;20186;-65
2022/03/18 06:24:18;;;;;;;16.25;7.15;;;5.60;98.70;;;;;;5107682;28;20177;-68
2022/03/18 06:26:44;;;;;;;16.65;7.18;;;5.50;98.70;;;;;;5106165;28;20177;-66
2022/03/18 06:29:10;;;;;;;15.80;7.03;;;5.60;98.80;;;;;;5103730;28;20684;-67
2022/03/18 06:31:36;;;;;;;21.02;7.25;;;5.60;98.80;;;;;;5105736;28;20196;-67
2022/03/18 06:34:03;;;;;;;18.38;7.85;;;5.60;98.80;;;;;;5106392;28;20173;-66
2022/03/18 06:36:31;;;;;;;20.17;7.93;;;5.60;98.90;;;;;;5108980;28;20185;-64
2022/03/18 06:38:57;;;;;;;24.33;7.50;;;5.60;99.00;;;;;;5107520;28;20196;-65
2022/03/18 06:41:23;;;;;;;17.40;7.43;;;5.60;99.00;;;;;;5108011;28;20190;-66
2022/03/18 06:43:50;;;;;;;18.08;7.30;;;5.70;99.10;;;;;;5107963;28;20185;-65
2022/03/18 06:46:16;;;;;;;22.80;7.85;;;5.70;99.20;;;;;;5108785;28;20232;-65
2022/03/18 06:48:43;;;;;;;15.90;7.40;;;5.70;99.20;;;;;;5088395;28;20236;-67
2022/03/18 06:51:09;;;;;;;18.60;7.90;;;5.70;99.20;;;;;;5106900;28;20219;-65
2022/03/18 06:53:35;;;;;;;20.77;8.43;;;5.70;99.30;;;;;;5107642;28;20649;-66
2022/03/18 06:56:00;;;;;;;10.90;7.40;;;5.70;99.40;;;;;;5107636;28;20185;-65
2022/03/18 06:58:30;;;;;;;22.88;7.97;;;5.80;99.50;;;;;;5108068;28;20188;-66
2022/03/18 07:00:56;;;;;;;19.77;7.70;;;5.80;99.50;;;;;;5106705;28;20582;-63
2022/03/18 07:03:24;;;;;;;17.08;8.27;;;5.90;99.60;;;;;;5107873;28;20177;-65
2022/03/18 07:05:50;;;;;;;17.33;8.23;;;5.90;99.70;;;;;;5107056;28;20231;-66
2022/03/18 07:08:16;;;;;;;20.10;8.43;;;5.90;99.70;;;;;;5106420;28;20213;-64
2022/03/18 07:10:41;;;;;;;36.58;9.23;;;6.00;99.80;;;;;;5107109;28;20264;-65
2022/03/18 07:13:09;;;;;;;22.20;8.52;;;6.00;99.90;;;;;;5105162;28;20184;-63
2022/03/18 07:15:35;;;;;;;18.70;8.23;;;6.10;99.90;;;;;;5105524;28;20785;-65
2022/03/18 07:18:01;;;;;;;23.45;8.20;;;6.20;99.90;;;;;;5106464;28;20184;-67
2022/03/18 07:20:32;;;;;;;28.08;8.02;;;6.20;99.90;;;;;;5123822;28;20661;-66
2022/03/18 07:23:10;;;;;;;17.58;7.93;;;6.30;99.90;;;;;;5107505;28;20193;-64
2022/03/18 07:25:47;;;;;;;19.65;8.57;;;6.30;99.90;;;;;;5109324;28;20217;-64
2022/03/18 07:28:14;;;;;;;19.35;8.98;;;6.40;99.90;;;;;;5103575;28;20745;-63
2022/03/18 07:30:42;;;;;;;20.77;9.15;;;6.40;99.90;;;;;;5108542;28;20181;-65
2022/03/18 07:33:08;;;;;;;20.02;8.57;;;6.50;99.90;;;;;;5090524;28;20215;-67
2022/03/18 07:35:34;;;;;;;23.27;8.23;;;6.60;99.90;;;;;;5107139;28;20273;-64
2022/03/18 07:38:02;;;;;;;21.33;9.32;;;6.60;99.90;;;;;;5107182;28;20185;-64
2022/03/18 07:40:28;;;;;;;24.98;8.50;;;6.70;99.90;;;;;;5107825;28;20258;-62
2022/03/18 07:42:56;;;;;;;25.17;9.25;;;6.80;99.90;;;;;;5108164;28;20412;-63
2022/03/18 07:45:26;;;;;;;20.92;8.82;;;7.20;99.90;;;;;;5110762;28;20490;-65
2022/03/18 07:47:54;;;;;;;18.63;8.68;;;7.70;99.90;;;;;;5111488;28;20411;-62
2022/03/18 07:50:22;;;;;;;21.83;8.02;;;8.00;99.90;;;;;;5108675;28;20407;-63
2022/03/18 07:52:52;;;;;;;16.10;6.90;;;8.20;99.70;;;;;;5108062;28;20599;-64
2022/03/18 07:55:19;;;;;;;19.10;6.93;;;8.40;99.30;;;;;;5109576;28;20408;-62
2022/03/18 07:57:45;;;;;;;16.37;6.67;;;8.60;98.90;;;;;;5109996;28;20493;-64
2022/03/18 08:00:12;;;;;;;18.67;7.32;;;8.80;98.60;;;;;;5109634;28;20416;-63
2022/03/18 08:02:44;;;;;;;20.05;7.00;;;8.90;98.30;;;;;;5109821;28;20394;-63
2022/03/18 08:05:10;;;;;;;10.88;5.15;;;9.10;98.20;;;;;;5111101;28;20456;-64
2022/03/18 08:07:37;;;;;;;15.77;7.07;;;9.20;97.90;;;;;;5109570;28;20415;-64
2022/03/18 08:10:04;;;;;;;15.32;7.03;;;9.30;97.70;;;;;;5108257;28;20404;-64
2022/03/18 08:12:31;;;;;;;13.20;5.97;;;9.50;97.70;;;;;;5105252;28;20422;-66
2022/03/18 08:15:02;;;;;;;21.20;8.10;;;9.60;97.50;;;;;;5109441;28;20755;-64
2022/03/18 08:17:28;;;;;;;22.58;8.02;;;9.80;97.30;;;;;;5111103;28;20500;-65
2022/03/18 08:19:54;;;;;;;19.33;7.10;;;9.90;97.40;;;;;;5108049;28;20487;-65
2022/03/18 08:22:21;;;;;;;22.33;8.00;;;10.00;97.50;;;;;;5109170;28;20507;-63
2022/03/18 08:24:47;;;;;;;19.73;7.70;;;10.20;97.60;;;;;;5111070;28;20519;-64
2022/03/18 08:27:13;;;;;;;17.40;6.50;;;10.40;97.20;;;;;;5106852;28;20430;-68
2022/03/18 08:29:38;;;;;;;22.30;8.50;;;10.50;97.20;;;;;;5108187;28;20437;-68
2022/03/18 08:32:11;;;;;;;16.03;7.23;;;10.70;98.00;;;;;;5108655;28;20396;-68
2022/03/18 08:34:37;;;;;;;24.85;9.32;;;10.90;98.10;;;;;;5106740;28;20408;-63
2022/03/18 08:37:05;;;;;;;22.93;7.90;;;11.10;98.80;;;;;;5110893;28;20400;-64
2022/03/18 08:39:35;;;;;;;20.55;7.97;;;11.50;99.20;;;;;;5109946;28;20432;-62
2022/03/18 08:42:01;;;;;;;16.63;6.70;;;12.20;98.30;;;;;;5107400;28;20420;-65
2022/03/18 08:44:27;;;;;;;18.73;6.13;;;13.50;96.20;;;;;;5110335;28;20887;-63
2022/03/18 08:46:52;;;;;;;18.73;7.00;;;15.20;92.40;;;;;;5108814;28;20480;-64
2022/03/18 08:49:18;;;;;;;;;;;16.90;86.70;;;;;;5112404;28;20297;-64
2022/03/18 08:51:43;;;;;;;;;;;16.70;90.80;;;;;;5110469;28;20418;-64
2022/03/18 08:54:09;;;;;;;;;;;16.80;92.60;;;;;;5110401;28;19938;-66
2022/03/18 08:56:35;;;;;;;;;;;17.30;93.90;;;;;;5109499;28;19915;-66
2022/03/18 08:59:06;;;;;;;12.88;5.38;;;18.00;94.20;;;;;;5111043;28;20615;-65
2022/03/18 09:01:33;;;;;;;14.32;5.30;;;19.20;93.00;;;;;;5109302;28;20204;-63
2022/03/18 09:03:59;;;;;;;14.15;5.00;;;20.60;88.90;;;;;;5111354;28;25069;-67
2022/03/18 09:06:24;;;;;;;;;;;21.80;82.00;;;;;;5108543;28;20035;-68
2022/03/18 09:08:50;;;;;;;13.45;4.70;;;22.80;75.40;;;;;;5109782;28;20061;-64
2022/03/18 09:11:16;;;;;;;12.88;4.65;;;26.90;46.50;;;;;;5109478;28;20400;-64
2022/03/18 09:13:41;;;;;;;14.77;4.67;;;29.10;40.00;;;;;;5110569;28;20411;-65
2022/03/18 09:16:07;;;;;;;14.47;5.53;;;30.50;36.60;;;;;;5108900;28;20393;-66
2022/03/18 09:18:33;;;;;;;12.73;4.30;;;31.50;34.50;;;;;;5109886;28;20493;-65
2022/03/18 09:20:58;;;;;;;12.57;4.20;;;32.40;32.70;;;;;;5110412;28;20400;-67
2022/03/18 09:23:24;;;;;;;12.33;4.10;;;33.10;31.50;;;;;;5110178;28;20625;-63
2022/03/18 09:25:51;;;;;;;13.10;3.93;;;33.60;30.40;;;;;;5110567;28;21255;-67
2022/03/18 09:28:16;;;;;;;14.07;4.35;;;34.20;29.70;;;;;;5109093;28;20912;-66
2022/03/18 09:30:42;;;;;;;10.98;3.90;;;34.60;29.30;;;;;;5107738;28;20438;-67
2022/03/18 09:33:08;;;;;;;10.35;3.90;;;34.90;28.60;;;;;;5110087;28;20462;-65
2022/03/18 09:35:34;;;;;;;13.20;3.90;;;35.20;28.40;;;;;;5110385;28;20396;-63
2022/03/18 09:38:00;;;;;;;11.27;3.92;;;35.50;28.40;;;;;;5109834;28;20415;-63
2022/03/18 09:40:26;;;;;;;13.40;4.40;;;35.60;27.50;;;;;;5106937;28;20416;-66
2022/03/18 09:43:06;;;;;;;11.30;4.13;;;35.80;27.30;;;;;;5109642;28;20422;-66
2022/03/18 09:45:35;;;;;;;11.88;4.00;;;35.90;27.60;;;;;;5108751;28;20461;-68
2022/03/18 09:48:04;;;;;;;10.48;4.55;;;36.00;26.90;;;;;;5108528;28;20552;-65
2022/03/18 09:50:30;;;;;;;12.98;4.13;;;36.10;27.00;;;;;;5108923;28;20430;-68
2022/03/18 09:52:56;;;;;;;13.30;4.57;;;36.30;26.60;;;;;;5108947;28;20407;-66
2022/03/18 09:55:23;;;;;;;10.05;3.92;;;36.40;26.70;;;;;;5109600;28;20438;-68
2022/03/18 09:57:49;;;;;;;11.03;4.40;;;36.40;26.60;;;;;;5108157;28;20400;-70
2022/03/18 10:00:15;;;;;;;14.27;4.43;;;35.90;27.00;;;;;;5107006;28;20904;-68
2022/03/18 10:02:41;;;;;;;11.75;4.07;;;35.10;27.80;;;;;;5109696;28;20515;-65
2022/03/18 10:05:15;;;;;;;14.60;3.97;;;34.40;28.40;;;;;;5108386;27;20192;-66
2022/03/18 10:07:59;;;;;;;;;;;32.60;30.80;;;;;;5109735;28;20024;-66
2022/03/18 10:10:26;;;;;;;;;;;31.00;32.90;;;;;;5108088;28;20038;-71
2022/03/18 10:12:55;;;;;;;;;;;29.50;35.30;;;;;;5108932;28;19978;-69
2022/03/18 10:15:26;;;;;;;;;;;28.40;37.00;;;;;;5109120;28;19912;-71
2022/03/18 10:17:54;;;;;;;12.63;4.20;;;27.50;38.40;;;;;;5107861;28;20182;-67
2022/03/18 10:20:26;;;;;;;13.55;4.30;;;26.90;39.70;;;;;;5107698;28;20503;-70
2022/03/18 10:22:54;;;;;;;14.13;4.80;;;27.80;37.40;;;;;;5106736;28;20424;-67
2022/03/18 10:25:50;;;;;;;14.40;5.15;;;27.90;37.40;;;;;;5107160;28;20415;-67
2022/03/18 10:28:37;;;;;;;15.82;4.70;;;27.70;37.80;;;;;;5108466;28;20465;-67
2022/03/18 10:31:09;;;;;;;;;;;27.40;38.50;;;;;;5108979;28;20410;-69
2022/03/18 10:39:26;;;;;;;18.23;5.28;;;26.50;40.50;;;;;;5107956;28;20400;-68
2022/03/18 10:41:52;;;;;;;14.48;4.60;;;26.30;40.60;;;;;;5108260;28;20400;-67
2022/03/18 10:44:19;;;;;;;11.23;3.90;;;26.10;40.80;;;;;;5107249;28;20531;-68
2022/03/18 10:46:44;;;;;;;13.95;4.38;;;25.90;40.40;;;;;;5106206;28;20419;-69
2022/03/18 10:49:10;;;;;;;11.55;4.03;;;25.80;40.70;;;;;;5108097;28;20423;-66
2022/03/18 10:51:37;;;;;;;13.30;4.70;;;25.60;40.10;;;;;;5106819;28;22634;-68
2022/03/18 10:54:04;;;;;;;11.90;4.82;;;25.50;41.60;;;;;;5109062;28;20399;-67
2022/03/18 10:56:59;;;;;;;16.00;5.07;;;25.40;41.90;;;;;;5106129;28;20412;-68
2022/03/18 10:59:27;;;;;;;13.38;4.40;;;25.20;42.40;;;;;;5108018;28;20400;-66
2022/03/18 11:01:56;;;;;;;13.68;4.53;;;25.30;42.30;;;;;;5108294;28;20388;-69
2022/03/18 11:04:23;;;;;;;16.10;5.20;;;25.40;42.10;;;;;;5108920;28;20420;-67
2022/03/18 11:12:31;;;;;;;11.45;4.88;;;25.80;41.80;;;;;;5106884;28;20716;-66
2022/03/18 11:14:57;;;;;;;11.80;4.53;;;25.10;43.50;;;;;;5107010;28;20192;-67
2022/03/18 11:17:24;;;;;;;14.03;4.40;;;24.70;44.10;;;;;;5109643;28;20188;-67
2022/03/18 11:19:52;;;;;;;7.50;4.05;;;24.30;44.60;;;;;;5111624;28;20209;-66
2022/03/18 11:22:20;;;;;;;16.25;3.75;;;24.10;45.20;;;;;;5112168;28;20195;-69
2022/03/18 11:24:46;;;;;;;;;;;24.20;45.60;;;;;;5111778;28;20534;-69
2022/03/18 11:27:12;;;;;;;;;;;26.00;40.80;;;;;;5113153;28;19955;-66
2022/03/18 11:29:38;;;;;;;;;;;27.30;38.30;;;;;;5112777;28;19943;-68
2022/03/18 11:32:09;;;;;;;;;;;27.90;36.50;;;;;;5112112;28;19915;-66
2022/03/18 11:34:45;;;;;;;;;;;26.50;38.80;;;;;;5111980;28;20349;-68
2022/03/18 11:37:11;;;;;;;;;;;25.70;40.60;;;;;;5110328;28;20383;-69
2022/03/18 11:39:38;;;;;;;;;;;25.20;41.60;;;;;;5111815;28;19943;-69
2022/03/18 11:42:04;;;;;;;;;;;24.90;42.90;;;;;;5111612;28;19965;-67
2022/03/18 11:44:36;;;;;;;;;;;26.60;38.70;;;;;;5112844;28;20003;-67
2022/03/18 11:47:23;;;;;;;;;;;27.40;37.20;;;;;;5111468;28;19958;-67
2022/03/18 11:49:49;;;;;;;;;;;27.70;36.80;;;;;;5108330;28;19915;-68
2022/03/18 11:52:15;;;;;;;;;;;27.90;37.20;;;;;;5110551;28;20000;-71
2022/03/18 11:54:59;;;;;;;;;;;28.10;35.70;;;;;;5113787;28;19962;-69
2022/03/18 11:57:33;;;;;;;;;;;28.30;34.30;;;;;;5110654;28;20457;-68
2022/03/18 12:00:00;;;;;;;;;;;28.60;34.60;;;;;;5114165;28;20019;-69
2022/03/18 12:02:31;;;;;;;;;;;29.10;34.30;;;;;;5110943;28;19908;-68
2022/03/18 12:04:58;;;;;;;;;;;27.70;35.90;;;;;;5112854;28;20636;-70
2022/03/18 12:07:25;;;;;;;;;;;26.90;38.10;;;;;;5110770;28;19964;-69
2022/03/18 12:09:53;;;;;;;;;;;26.50;39.40;;;;;;5112168;28;19908;-67
2022/03/18 12:12:21;;;;;;;;;;;28.80;33.80;;;;;;5111901;28;19912;-70
2022/03/18 12:14:47;;;;;;;;;;;30.20;30.50;;;;;;5113592;28;19915;-70
2022/03/18 12:17:13;;;;;;;;;;;30.80;29.70;;;;;;5112213;27;19911;-69
2022/03/18 12:19:38;;;;;;;;;;;31.00;29.60;;;;;;5112263;28;19936;-68
2022/03/18 12:22:05;;;;;;;;;;;31.10;29.50;;;;;;5111422;28;19938;-70
2022/03/18 12:24:32;;;;;;;;;;;29.60;31.60;;;;;;5109915;28;19908;-70
2022/03/18 12:27:00;;;;;;;;;;;28.50;33.70;;;;;;5110689;28;19908;-70
2022/03/18 12:29:27;;;;;;;;;;;27.80;35.10;;;;;;5111813;28;19919;-70
2022/03/18 12:32:09;;;;;;;;;;;29.00;32.10;;;;;;5110955;28;20096;-69
2022/03/18 12:34:51;;;;;;;;;;;29.50;31.90;;;;;;5109618;28;19908;-69
2022/03/18 12:37:22;;;;;;;;;;;29.60;31.60;;;;;;5111050;28;19934;-69
2022/03/18 12:39:59;;;;;;;;;;;29.70;31.20;;;;;;5108288;28;19918;-69
2022/03/18 12:42:25;;;;;;;;;;;29.50;31.60;;;;;;5109074;28;20322;-70
2022/03/18 12:44:51;;;;;;;;;;;29.40;32.20;;;;;;5111669;28;19908;-70
2022/03/18 12:47:17;;;;;;;;;;;29.40;31.70;;;;;;5111566;28;19911;-69
2022/03/18 12:49:43;;;;;;;;;;;29.50;33.20;;;;;;5108988;28;20006;-67
2022/03/18 12:52:12;;;;;;;;;;;29.70;31.70;;;;;;5108584;28;20000;-69
2022/03/18 12:54:39;;;;;;;;;;;30.00;30.90;;;;;;5112398;28;19911;-70
2022/03/18 12:57:13;;;;;;;;;;;30.20;30.50;;;;;;5108212;28;20444;-71
2022/03/18 12:59:39;;;;;;;;;;;30.30;30.50;;;;;;5112472;28;19927;-71
2022/03/18 13:02:05;;;;;;;;;;;30.40;30.00;;;;;;5110600;28;20660;-69
2022/03/18 13:04:33;;;;;;;;;;;30.40;29.70;;;;;;5112582;28;19914;-64
2022/03/18 13:06:59;;;;;;;;;;;30.40;29.80;;;;;;5109091;28;19981;-67
2022/03/18 13:09:25;;;;;;;;;;;30.40;29.70;;;;;;5112411;28;19958;-69
2022/03/18 13:11:50;;;;;;;;;;;30.30;30.00;;;;;;5110363;28;20356;-70
2022/03/18 13:14:34;;;;;;;;;;;30.30;29.50;;;;;;5110508;28;19934;-68
2022/03/18 13:17:01;;;;;;;;;;;30.10;29.50;;;;;;5108655;28;19914;-66
2022/03/18 13:19:40;;;;;;;;;;;29.80;29.70;;;;;;5111231;28;19947;-69
2022/03/18 13:22:06;;;;;;;;;;;29.50;30.00;;;;;;5111489;28;19916;-69
2022/03/18 13:24:31;;;;;;;;;;;29.10;30.30;;;;;;5110970;28;19914;-67